Time;durP1;ratioP1;P1;durP2;ratioP2;P2;SDS_P1;SDS_P2;PMS_P1;PMS_P2;Temp;Humidity;BMP_temperature;BMP_pressure;BME280_temperature;BME280_humidity;BME280_pressure;Samples;Min_cycle;Max_cycle;Signal;HPM_P1;HPM_P2
2023/12/05 00:00:58;;;;;;;59.20;25.90;;;0.40;99.90;;;;;;5006549;28;20207;-63
2023/12/05 00:03:25;;;;;;;60.87;27.27;;;0.40;99.90;;;;;;5010907;28;20204;-63
2023/12/05 00:05:52;;;;;;;55.83;26.13;;;0.30;99.90;;;;;;5009120;28;20208;-63
2023/12/05 00:08:19;;;;;;;72.13;28.20;;;0.30;99.90;;;;;;5004550;28;20220;-63
2023/12/05 00:10:46;;;;;;;64.00;27.37;;;0.30;99.90;;;;;;5002050;28;20248;-62
2023/12/05 00:13:13;;;;;;;52.90;23.93;;;0.30;99.90;;;;;;5004341;28;20207;-62
2023/12/05 00:15:41;;;;;;;60.00;25.80;;;0.30;99.90;;;;;;5006074;28;20735;-63
2023/12/05 00:18:09;;;;;;;64.50;27.63;;;0.30;99.90;;;;;;5008005;28;20272;-63
2023/12/05 00:20:36;;;;;;;54.80;23.87;;;0.40;99.90;;;;;;5008583;28;20229;-63
2023/12/05 00:23:03;;;;;;;62.97;25.90;;;0.30;99.90;;;;;;5006870;28;20213;-63
2023/12/05 00:25:30;;;;;;;55.77;26.23;;;0.30;99.90;;;;;;5005802;28;20620;-63
2023/12/05 00:27:57;;;;;;;67.43;25.30;;;0.30;99.90;;;;;;5013463;28;20224;-62
2023/12/05 00:30:25;;;;;;;56.17;25.97;;;0.40;99.90;;;;;;5015313;28;20223;-63
2023/12/05 00:32:53;;;;;;;59.13;26.20;;;0.30;99.90;;;;;;5006215;28;20196;-62
2023/12/05 00:35:20;;;;;;;59.03;25.70;;;0.30;99.90;;;;;;5009477;28;20252;-63
2023/12/05 00:37:47;;;;;;;59.93;26.47;;;0.40;99.90;;;;;;5009788;28;20779;-63
2023/12/05 00:40:14;;;;;;;71.23;29.07;;;0.40;99.90;;;;;;5010452;28;20668;-63
2023/12/05 00:42:41;;;;;;;51.33;25.73;;;0.30;99.90;;;;;;5012905;28;21167;-62
2023/12/05 00:45:10;;;;;;;62.80;27.80;;;0.30;99.90;;;;;;5013953;28;20669;-63
2023/12/05 00:47:37;;;;;;;55.60;25.67;;;0.40;99.90;;;;;;5010963;28;20703;-63
2023/12/05 00:50:07;;;;;;;49.10;24.87;;;0.40;99.90;;;;;;5013556;28;20221;-62
2023/12/05 00:52:34;;;;;;;53.77;25.63;;;0.40;99.90;;;;;;5012868;28;20205;-63
2023/12/05 00:55:01;;;;;;;55.77;25.80;;;0.50;99.90;;;;;;5015495;28;20896;-63
2023/12/05 00:57:28;;;;;;;66.67;26.03;;;0.50;99.90;;;;;;5021314;28;20229;-63
2023/12/05 00:59:55;;;;;;;53.77;23.60;;;0.60;99.90;;;;;;5012431;28;20199;-63
2023/12/05 01:02:22;;;;;;;63.40;25.93;;;0.60;99.90;;;;;;5013799;28;20275;-63
2023/12/05 01:04:49;;;;;;;51.20;24.97;;;0.60;99.90;;;;;;5016278;28;20619;-62
2023/12/05 01:07:20;;;;;;;59.00;25.40;;;0.60;99.90;;;;;;5004591;28;20300;-62
2023/12/05 01:09:48;;;;;;;59.30;27.40;;;0.60;99.90;;;;;;5004637;28;20725;-62
2023/12/05 01:12:15;;;;;;;55.77;25.03;;;0.60;99.90;;;;;;5002405;28;20205;-63
2023/12/05 01:14:42;;;;;;;57.07;27.00;;;0.60;99.90;;;;;;5001954;28;20203;-63
2023/12/05 01:17:09;;;;;;;59.40;28.30;;;0.70;99.90;;;;;;5011287;28;20229;-63
2023/12/05 01:19:37;;;;;;;52.77;25.73;;;0.70;99.90;;;;;;4996694;28;20269;-63
2023/12/05 01:22:04;;;;;;;56.73;25.57;;;0.60;99.90;;;;;;5002019;28;20288;-63
2023/12/05 01:24:33;;;;;;;55.33;24.77;;;0.60;99.90;;;;;;5011468;28;20588;-63
2023/12/05 01:27:00;;;;;;;50.90;21.37;;;0.50;99.90;;;;;;5010639;28;20221;-63
2023/12/05 01:29:27;;;;;;;60.33;26.13;;;0.50;99.90;;;;;;5002954;28;20267;-63
2023/12/05 01:31:54;;;;;;;56.13;26.07;;;0.50;99.90;;;;;;5008478;28;20208;-63
2023/12/05 01:34:21;;;;;;;60.33;25.27;;;0.60;99.90;;;;;;5008079;28;20233;-63
2023/12/05 01:36:47;;;;;;;56.27;24.83;;;0.60;99.90;;;;;;5010694;28;20217;-63
2023/12/05 01:39:14;;;;;;;52.83;25.27;;;0.60;99.90;;;;;;5012486;28;20233;-62
2023/12/05 01:41:46;;;;;;;51.70;23.80;;;0.60;99.90;;;;;;5011545;28;20196;-62
2023/12/05 01:44:13;;;;;;;53.57;24.37;;;0.60;99.90;;;;;;5011223;28;20601;-63
2023/12/05 01:46:40;;;;;;;45.27;23.03;;;0.60;99.90;;;;;;5010325;28;20731;-62
2023/12/05 01:49:08;;;;;;;54.27;24.40;;;0.60;99.90;;;;;;5001418;28;20197;-63
2023/12/05 01:51:35;;;;;;;47.20;23.33;;;0.50;99.90;;;;;;5009934;28;20767;-63
2023/12/05 01:54:03;;;;;;;52.87;24.20;;;0.50;99.90;;;;;;5011810;28;20214;-63
2023/12/05 01:56:30;;;;;;;52.40;27.30;;;0.60;99.90;;;;;;5010755;28;20204;-62
2023/12/05 01:58:59;;;;;;;51.53;24.67;;;0.60;99.90;;;;;;5002860;28;20265;-63
2023/12/05 02:01:26;;;;;;;61.17;26.20;;;0.60;99.90;;;;;;5009606;28;22384;-62
2023/12/05 02:03:54;;;;;;;54.23;26.67;;;0.60;99.90;;;;;;5010202;28;20207;-63
2023/12/05 02:06:21;;;;;;;58.87;27.57;;;0.50;99.90;;;;;;5010265;28;20210;-63
2023/12/05 02:08:50;;;;;;;53.73;25.93;;;0.60;99.90;;;;;;5001048;28;20263;-63
2023/12/05 02:11:17;;;;;;;56.73;25.40;;;0.50;99.90;;;;;;5007827;28;20226;-63
2023/12/05 02:13:44;;;;;;;55.70;26.17;;;0.50;99.90;;;;;;5008183;28;20255;-63
2023/12/05 02:16:24;;;;;;;51.97;25.27;;;0.50;99.90;;;;;;5010703;28;20557;-63
2023/12/05 02:18:57;;;;;;;54.60;27.43;;;0.60;99.90;;;;;;4999336;28;20260;-63
2023/12/05 02:21:29;;;;;;;56.37;25.90;;;0.50;99.90;;;;;;5005475;28;20268;-63
2023/12/05 02:24:11;;;;;;;59.10;27.83;;;0.50;99.90;;;;;;5009533;28;20268;-63
2023/12/05 02:26:47;;;;;;;59.53;26.97;;;0.50;99.90;;;;;;5008864;28;20259;-63
2023/12/05 02:29:15;;;;;;;60.93;27.23;;;0.50;99.90;;;;;;5000920;28;20216;-63
2023/12/05 02:31:46;;;;;;;59.27;28.47;;;0.50;99.90;;;;;;5006670;28;20266;-63
2023/12/05 02:34:14;;;;;;;66.97;29.33;;;0.50;99.90;;;;;;5008183;28;20209;-63
2023/12/05 02:37:01;;;;;;;65.53;30.20;;;0.50;99.90;;;;;;5008889;28;20684;-63
2023/12/05 02:39:38;;;;;;;61.10;28.37;;;0.50;99.90;;;;;;5006829;28;20279;-63
2023/12/05 02:42:12;;;;;;;62.77;28.10;;;0.50;99.90;;;;;;5009119;28;20220;-63
2023/12/05 02:44:45;;;;;;;73.17;31.20;;;0.50;99.90;;;;;;5010800;28;20202;-63
2023/12/05 02:47:15;;;;;;;75.63;30.87;;;0.60;99.90;;;;;;5010195;28;20220;-63
2023/12/05 02:49:42;;;;;;;59.33;28.50;;;0.50;99.90;;;;;;5011740;28;20684;-63
2023/12/05 02:52:10;;;;;;;74.87;29.50;;;0.50;99.90;;;;;;5000543;28;20224;-61
2023/12/05 02:54:37;;;;;;;64.07;28.97;;;0.50;99.90;;;;;;5010630;28;20200;-62
2023/12/05 02:57:04;;;;;;;67.33;29.27;;;0.50;99.90;;;;;;5011180;28;20226;-62
2023/12/05 02:59:31;;;;;;;58.63;26.70;;;0.40;99.90;;;;;;5000773;28;20197;-63
2023/12/05 03:02:00;;;;;;;66.27;27.70;;;0.40;99.90;;;;;;5006134;28;20724;-63
2023/12/05 03:04:27;;;;;;;66.70;30.17;;;0.40;99.90;;;;;;5008909;28;20247;-63
2023/12/05 03:06:54;;;;;;;64.70;29.90;;;0.30;99.90;;;;;;5009065;28;20228;-62
2023/12/05 03:09:21;;;;;;;65.80;28.83;;;0.30;99.90;;;;;;5009321;28;20203;-63
2023/12/05 03:11:50;;;;;;;65.27;28.60;;;0.20;99.90;;;;;;5007873;28;20236;-63
2023/12/05 03:14:17;;;;;;;70.43;29.07;;;0.20;99.90;;;;;;5011366;28;20271;-63
2023/12/05 03:16:44;;;;;;;60.63;27.00;;;0.20;99.90;;;;;;5024997;28;20259;-63
2023/12/05 03:19:12;;;;;;;57.37;26.83;;;0.20;99.90;;;;;;5014062;28;20270;-63
2023/12/05 03:21:39;;;;;;;57.70;26.17;;;0.10;99.90;;;;;;5011823;28;20198;-62
2023/12/05 03:24:07;;;;;;;63.13;27.07;;;0.10;99.90;;;;;;5010203;28;20212;-63
2023/12/05 03:26:33;;;;;;;54.63;26.37;;;0.10;99.90;;;;;;5011311;28;20210;-62
2023/12/05 03:29:00;;;;;;;57.40;27.63;;;0.10;99.90;;;;;;5009561;28;20200;-63
2023/12/05 03:31:27;;;;;;;70.83;29.07;;;0.20;99.90;;;;;;5010332;28;20228;-62
2023/12/05 03:33:54;;;;;;;62.30;29.13;;;0.20;99.90;;;;;;5009141;28;20672;-63
2023/12/05 03:36:23;;;;;;;66.77;28.10;;;0.10;99.90;;;;;;5011508;28;20748;-63
2023/12/05 03:38:50;;;;;;;74.63;28.77;;;0.00;99.90;;;;;;5011308;28;20226;-63
2023/12/05 03:41:17;;;;;;;66.83;28.77;;;0.00;99.90;;;;;;5010558;28;20196;-62
2023/12/05 03:43:43;;;;;;;65.37;29.93;;;0.00;99.90;;;;;;5011435;28;20680;-63
2023/12/05 03:46:10;;;;;;;64.53;29.47;;;0.00;99.90;;;;;;5011688;28;20823;-63
2023/12/05 03:48:37;;;;;;;62.67;31.67;;;0.00;99.90;;;;;;5011445;28;20292;-63
2023/12/05 03:51:05;;;;;;;63.13;28.60;;;0.00;99.90;;;;;;5010934;28;20756;-63
2023/12/05 03:53:33;;;;;;;68.60;28.30;;;0.00;99.90;;;;;;5011152;28;20628;-63
2023/12/05 03:56:00;;;;;;;69.20;30.07;;;0.00;99.90;;;;;;5011388;28;20263;-62
2023/12/05 03:58:27;;;;;;;68.60;30.43;;;0.00;99.90;;;;;;5011350;28;20283;-63
2023/12/05 04:00:54;;;;;;;59.30;29.53;;;0.00;99.90;;;;;;5011649;28;20202;-63
2023/12/05 04:03:21;;;;;;;71.10;30.57;;;0.00;99.90;;;;;;5009560;28;20206;-63
2023/12/05 04:05:48;;;;;;;58.90;29.80;;;0.00;99.90;;;;;;5011319;28;20200;-62
2023/12/05 04:08:15;;;;;;;74.30;30.80;;;0.00;99.90;;;;;;5009729;28;20279;-63
2023/12/05 04:10:43;;;;;;;65.80;27.30;;;0.10;99.90;;;;;;5010886;28;20226;-63
2023/12/05 04:13:10;;;;;;;59.83;28.13;;;0.10;99.90;;;;;;5011641;28;20634;-63
2023/12/05 04:15:37;;;;;;;64.37;29.10;;;0.10;99.90;;;;;;5010215;28;20670;-63
2023/12/05 04:18:04;;;;;;;62.40;27.97;;;0.10;99.90;;;;;;5020972;28;20248;-62
2023/12/05 04:20:31;;;;;;;63.80;29.97;;;0.10;99.90;;;;;;5015155;28;20274;-62
2023/12/05 04:22:58;;;;;;;67.67;28.73;;;0.10;99.90;;;;;;5015032;28;20681;-63
2023/12/05 04:25:25;;;;;;;62.33;28.40;;;0.10;99.90;;;;;;5014723;28;20212;-63
2023/12/05 04:27:53;;;;;;;68.03;30.43;;;0.10;99.90;;;;;;5013444;28;20874;-63
2023/12/05 04:30:21;;;;;;;69.03;30.97;;;0.20;99.90;;;;;;5019680;28;20253;-62
2023/12/05 04:32:48;;;;;;;67.43;30.10;;;0.20;99.90;;;;;;5033999;28;20192;-63
2023/12/05 04:35:15;;;;;;;64.60;29.57;;;0.30;99.90;;;;;;5024458;28;20208;-63
2023/12/05 04:37:43;;;;;;;61.87;28.80;;;0.40;99.90;;;;;;5006009;28;20662;-63
2023/12/05 04:40:10;;;;;;;62.37;29.57;;;0.40;99.90;;;;;;5013956;28;20667;-63
2023/12/05 04:42:38;;;;;;;62.20;28.17;;;0.50;99.90;;;;;;5012378;28;20733;-63
2023/12/05 04:45:08;;;;;;;71.53;29.53;;;0.50;99.90;;;;;;5014194;28;20260;-62
2023/12/05 04:47:35;;;;;;;66.83;29.20;;;0.50;99.90;;;;;;5012953;28;20305;-63
2023/12/05 04:50:02;;;;;;;59.40;28.27;;;0.50;99.90;;;;;;5014315;28;20252;-63
2023/12/05 04:52:29;;;;;;;60.13;26.60;;;0.50;99.90;;;;;;5016002;28;20232;-63
2023/12/05 04:54:56;;;;;;;56.00;27.80;;;0.50;99.90;;;;;;5012172;28;20214;-63
2023/12/05 04:57:23;;;;;;;72.10;28.73;;;0.40;99.90;;;;;;5006122;28;20220;-63
2023/12/05 04:59:50;;;;;;;57.57;25.93;;;0.50;99.90;;;;;;5014328;28;20197;-63
2023/12/05 05:02:18;;;;;;;62.87;28.37;;;0.60;99.90;;;;;;5014181;28;20197;-63
2023/12/05 05:04:45;;;;;;;60.80;27.43;;;0.60;99.90;;;;;;5014042;28;20204;-63
2023/12/05 05:07:12;;;;;;;60.33;28.47;;;0.50;99.90;;;;;;5013797;28;20225;-63
2023/12/05 05:09:39;;;;;;;54.93;24.57;;;0.40;99.90;;;;;;5013715;28;20206;-63
2023/12/05 05:12:08;;;;;;;52.37;25.77;;;0.40;99.90;;;;;;5014003;28;20242;-63
2023/12/05 05:14:36;;;;;;;45.87;22.87;;;0.50;99.90;;;;;;5009320;28;20204;-62
2023/12/05 05:17:03;;;;;;;51.17;23.13;;;0.50;99.90;;;;;;5013342;28;20723;-65
2023/12/05 05:19:32;;;;;;;47.93;25.00;;;0.50;99.90;;;;;;5013797;28;20280;-63
2023/12/05 05:21:59;;;;;;;45.43;21.53;;;0.60;99.90;;;;;;5013672;28;20726;-63
2023/12/05 05:24:26;;;;;;;44.30;22.33;;;0.60;99.90;;;;;;5013018;28;20218;-63
2023/12/05 05:26:55;;;;;;;45.97;23.40;;;0.60;99.90;;;;;;5010521;28;20632;-62
2023/12/05 05:29:22;;;;;;;44.60;24.20;;;0.60;99.90;;;;;;5007154;28;20200;-63
2023/12/05 05:31:49;;;;;;;40.33;21.03;;;0.60;99.90;;;;;;5006330;28;20767;-63
2023/12/05 05:34:15;;;;;;;50.37;23.97;;;0.70;99.90;;;;;;5016093;28;20200;-63
2023/12/05 05:36:44;;;;;;;39.63;20.23;;;0.70;99.90;;;;;;5012439;28;20634;-63
2023/12/05 05:39:11;;;;;;;43.13;22.00;;;0.70;99.90;;;;;;5001600;28;20199;-63
2023/12/05 05:41:37;;;;;;;44.77;22.30;;;0.70;99.90;;;;;;5008992;28;20250;-63
2023/12/05 05:44:04;;;;;;;40.63;21.83;;;0.70;99.90;;;;;;5013581;28;20196;-62
2023/12/05 05:46:31;;;;;;;40.73;20.83;;;0.70;99.90;;;;;;5012080;28;20253;-63
2023/12/05 05:48:58;;;;;;;48.60;22.37;;;0.60;99.90;;;;;;5012727;28;20230;-63
2023/12/05 05:51:26;;;;;;;42.13;21.67;;;0.60;99.90;;;;;;5012893;28;20221;-63
2023/12/05 05:53:55;;;;;;;43.50;21.23;;;0.60;99.90;;;;;;5011821;28;20663;-63
2023/12/05 05:56:22;;;;;;;50.53;22.77;;;0.60;99.90;;;;;;5011937;28;20197;-63
2023/12/05 05:58:50;;;;;;;45.00;22.30;;;0.60;99.90;;;;;;5017524;28;20231;-63
2023/12/05 06:01:17;;;;;;;49.17;21.87;;;0.60;99.90;;;;;;5013061;28;20253;-62
2023/12/05 06:03:44;;;;;;;44.03;23.13;;;0.60;99.90;;;;;;5012682;28;20270;-63
2023/12/05 06:06:11;;;;;;;45.83;22.73;;;0.60;99.90;;;;;;5002261;28;20224;-63
2023/12/05 06:08:38;;;;;;;42.67;22.77;;;0.60;99.90;;;;;;5004333;28;20804;-63
2023/12/05 06:11:07;;;;;;;44.97;19.63;;;0.60;99.90;;;;;;5012340;28;20209;-63
2023/12/05 06:13:34;;;;;;;42.47;21.17;;;0.60;99.90;;;;;;5011046;28;20201;-63
2023/12/05 06:16:02;;;;;;;48.03;21.47;;;0.60;99.90;;;;;;5018468;28;20248;-63
2023/12/05 06:18:29;;;;;;;49.37;24.33;;;0.50;99.90;;;;;;5012036;28;20226;-63
2023/12/05 06:20:57;;;;;;;64.93;23.37;;;0.60;99.90;;;;;;5012650;28;20200;-63
2023/12/05 06:23:24;;;;;;;45.90;22.13;;;0.60;99.90;;;;;;5012632;28;20231;-63
2023/12/05 06:25:51;;;;;;;50.40;22.77;;;0.50;99.90;;;;;;5012513;28;20204;-63
2023/12/05 06:28:20;;;;;;;39.90;19.80;;;0.50;99.90;;;;;;5012103;28;20222;-62
2023/12/05 06:30:47;;;;;;;43.03;19.67;;;0.50;99.90;;;;;;5012486;28;20205;-63
2023/12/05 06:33:14;;;;;;;42.13;20.33;;;0.50;99.90;;;;;;5013297;28;20231;-63
2023/12/05 06:35:41;;;;;;;32.63;19.97;;;0.50;99.90;;;;;;5013222;28;20355;-63
2023/12/05 06:38:08;;;;;;;40.03;20.20;;;0.50;99.90;;;;;;5011351;28;20236;-62
2023/12/05 06:40:35;;;;;;;41.50;20.47;;;0.50;99.90;;;;;;5012051;28;20225;-63
2023/12/05 06:43:02;;;;;;;43.10;20.27;;;0.50;99.90;;;;;;5011926;28;22020;-63
2023/12/05 06:45:30;;;;;;;45.63;22.80;;;0.50;99.90;;;;;;5011862;28;20203;-63
2023/12/05 06:47:57;;;;;;;54.70;24.97;;;0.60;99.90;;;;;;5011811;28;20275;-63
2023/12/05 06:50:24;;;;;;;51.90;24.43;;;0.60;99.90;;;;;;5012163;28;20208;-62
2023/12/05 06:52:51;;;;;;;50.43;24.10;;;0.60;99.90;;;;;;5008464;28;20699;-63
2023/12/05 06:55:19;;;;;;;50.10;23.97;;;0.70;99.90;;;;;;5010482;28;20201;-63
2023/12/05 06:57:45;;;;;;;47.77;24.77;;;0.80;99.90;;;;;;5011008;28;20225;-62
2023/12/05 07:00:14;;;;;;;42.87;23.13;;;0.80;99.90;;;;;;5008288;28;20264;-63
2023/12/05 07:02:42;;;;;;;47.80;23.00;;;0.80;99.90;;;;;;5019466;28;20201;-63
2023/12/05 07:05:09;;;;;;;43.17;23.40;;;0.90;99.90;;;;;;5007889;28;20204;-63
2023/12/05 07:07:36;;;;;;;47.93;22.83;;;0.90;99.90;;;;;;5011459;28;20352;-63
2023/12/05 07:10:05;;;;;;;41.73;22.30;;;0.90;99.90;;;;;;5011770;28;20209;-63
2023/12/05 07:12:33;;;;;;;44.23;21.27;;;0.90;99.90;;;;;;5009647;28;20220;-63
2023/12/05 07:15:00;;;;;;;47.67;23.53;;;0.90;99.90;;;;;;5009465;28;20203;-63
2023/12/05 07:17:27;;;;;;;43.33;22.10;;;0.90;99.90;;;;;;5014645;28;20283;-63
2023/12/05 07:19:55;;;;;;;52.67;27.23;;;1.00;99.90;;;;;;5019594;28;20209;-62
2023/12/05 07:22:23;;;;;;;50.87;26.83;;;1.00;99.90;;;;;;5009177;28;20193;-63
2023/12/05 07:24:50;;;;;;;41.93;24.77;;;1.20;99.90;;;;;;5008015;28;20201;-63
2023/12/05 07:27:17;;;;;;;45.43;23.93;;;1.20;99.90;;;;;;5011194;28;20699;-63
2023/12/05 07:29:44;;;;;;;41.10;22.73;;;1.20;99.90;;;;;;5011420;28;20734;-63
2023/12/05 07:32:11;;;;;;;49.30;22.13;;;1.20;99.90;;;;;;5003431;28;20661;-63
2023/12/05 07:34:38;;;;;;;41.33;23.27;;;1.30;99.90;;;;;;5013061;28;20203;-63
2023/12/05 07:37:07;;;;;;;44.07;21.60;;;1.30;99.90;;;;;;5005482;28;20256;-62
2023/12/05 07:39:34;;;;;;;54.90;23.33;;;1.30;99.90;;;;;;5011504;28;20228;-63
2023/12/05 07:42:01;;;;;;;36.83;19.93;;;1.30;99.90;;;;;;5010627;28;20266;-64
2023/12/05 07:44:28;;;;;;;34.63;18.87;;;1.40;99.90;;;;;;5009829;28;20273;-63
2023/12/05 07:46:55;;;;;;;44.80;20.13;;;1.50;99.90;;;;;;5003834;28;20773;-62
2023/12/05 07:49:22;;;;;;;45.73;21.83;;;1.50;99.90;;;;;;5005354;28;20204;-63
2023/12/05 07:51:51;;;;;;;42.87;22.33;;;1.60;99.90;;;;;;5016001;28;20924;-63
2023/12/05 07:54:19;;;;;;;41.23;18.30;;;1.70;99.90;;;;;;5014441;28;20297;-63
2023/12/05 07:56:47;;;;;;;53.20;22.77;;;1.70;99.90;;;;;;5011902;28;20206;-63
2023/12/05 07:59:14;;;;;;;41.87;21.63;;;1.90;99.90;;;;;;5013560;28;20192;-63
2023/12/05 08:01:42;;;;;;;39.43;19.80;;;2.00;99.90;;;;;;5014655;28;20252;-63
2023/12/05 08:04:09;;;;;;;46.77;21.10;;;2.10;99.90;;;;;;5006940;28;20248;-63
2023/12/05 08:06:36;;;;;;;45.10;21.60;;;2.30;99.90;;;;;;5014683;28;20201;-63
2023/12/05 08:09:03;;;;;;;39.23;20.60;;;2.40;99.90;;;;;;5013391;28;20205;-63
2023/12/05 08:11:31;;;;;;;38.77;20.27;;;2.60;99.90;;;;;;5019869;28;20201;-63
2023/12/05 08:13:58;;;;;;;43.57;22.23;;;2.90;99.90;;;;;;5009076;28;20276;-63
2023/12/05 08:16:25;;;;;;;40.33;22.47;;;3.00;99.90;;;;;;5015120;28;20206;-63
2023/12/05 08:18:52;;;;;;;44.10;23.20;;;3.30;99.90;;;;;;5016005;28;20221;-63
2023/12/05 08:21:19;;;;;;;39.60;22.67;;;3.50;99.90;;;;;;5015993;28;20197;-63
2023/12/05 08:23:46;;;;;;;37.90;20.80;;;3.60;99.90;;;;;;5016448;28;20198;-64
2023/12/05 08:26:13;;;;;;;30.90;17.57;;;3.70;99.90;;;;;;5013744;28;20204;-64
2023/12/05 08:28:42;;;;;;;32.70;19.03;;;3.80;99.90;;;;;;5016490;28;20226;-64
2023/12/05 08:31:09;;;;;;;49.87;22.27;;;4.10;99.90;;;;;;5014014;28;20677;-64
2023/12/05 08:33:36;;;;;;;35.30;21.27;;;4.10;99.90;;;;;;5016346;28;20857;-63
2023/12/05 08:36:03;;;;;;;35.83;21.07;;;4.00;99.90;;;;;;5017545;28;20200;-64
2023/12/05 08:38:30;;;;;;;36.40;21.10;;;3.80;99.90;;;;;;5013653;28;20255;-63
2023/12/05 08:40:57;;;;;;;40.50;19.93;;;3.60;99.90;;;;;;5014329;28;20201;-64
2023/12/05 08:43:24;;;;;;;34.47;19.37;;;3.50;99.90;;;;;;5019250;28;20288;-64
2023/12/05 08:45:53;;;;;;;37.17;19.87;;;3.30;99.90;;;;;;5018616;28;20241;-63
2023/12/05 08:48:20;;;;;;;34.50;18.47;;;3.20;99.90;;;;;;5013739;28;20275;-64
2023/12/05 08:50:47;;;;;;;36.50;19.67;;;3.10;99.90;;;;;;5014309;28;20256;-63
2023/12/05 08:53:14;;;;;;;30.60;18.43;;;3.00;99.90;;;;;;5014389;28;20288;-63
2023/12/05 08:55:42;;;;;;;36.80;19.07;;;2.90;99.90;;;;;;5012414;28;20197;-63
2023/12/05 08:58:09;;;;;;;31.73;18.77;;;2.90;99.90;;;;;;5012342;28;20225;-63
2023/12/05 09:00:36;;;;;;;32.47;20.20;;;2.80;99.90;;;;;;5011657;28;20443;-65
2023/12/05 09:03:04;;;;;;;31.63;17.20;;;2.90;99.90;;;;;;5017964;28;20249;-67
2023/12/05 09:05:31;;;;;;;28.50;19.13;;;2.80;99.90;;;;;;5013139;28;20712;-67
2023/12/05 09:07:58;;;;;;;28.50;18.27;;;2.90;99.90;;;;;;5013660;28;20704;-67
2023/12/05 09:10:25;;;;;;;28.70;16.13;;;2.90;99.90;;;;;;5010926;28;20208;-66
2023/12/05 09:12:56;;;;;;;32.80;18.60;;;2.90;99.90;;;;;;5013495;28;20650;-70
2023/12/05 09:15:23;;;;;;;31.87;17.00;;;2.90;99.90;;;;;;5013568;28;20626;-70
2023/12/05 09:17:50;;;;;;;31.57;18.73;;;2.90;99.90;;;;;;5017283;28;20225;-69
2023/12/05 09:20:19;;;;;;;37.73;17.60;;;2.90;99.90;;;;;;5017760;28;20205;-70
2023/12/05 09:22:46;;;;;;;33.60;17.43;;;3.00;99.90;;;;;;5017525;28;20193;-69
2023/12/05 09:25:13;;;;;;;24.50;14.53;;;3.10;99.90;;;;;;5016569;28;20681;-70
2023/12/05 09:27:40;;;;;;;27.13;15.73;;;3.20;99.90;;;;;;5018740;28;20231;-70
2023/12/05 09:30:08;;;;;;;30.87;17.63;;;3.30;99.90;;;;;;5013981;28;20207;-67
2023/12/05 09:32:35;;;;;;;25.93;15.73;;;3.50;99.90;;;;;;5013024;28;20280;-66
2023/12/05 09:35:02;;;;;;;22.57;14.53;;;3.50;99.90;;;;;;5013256;28;20201;-65
2023/12/05 09:37:31;;;;;;;24.70;14.70;;;3.60;99.90;;;;;;5013245;28;20284;-68
2023/12/05 09:39:59;;;;;;;18.50;11.80;;;3.70;99.90;;;;;;5004753;28;20737;-66
2023/12/05 09:42:26;;;;;;;22.53;13.57;;;3.70;99.90;;;;;;5016164;28;20197;-66
2023/12/05 09:44:55;;;;;;;35.40;17.97;;;3.70;99.90;;;;;;5012549;28;20210;-66
2023/12/05 09:47:22;;;;;;;28.43;16.50;;;3.80;99.90;;;;;;5012019;28;20303;-64
2023/12/05 09:49:49;;;;;;;29.00;14.90;;;3.80;99.90;;;;;;5012803;28;20197;-64
2023/12/05 09:52:17;;;;;;;23.27;14.43;;;3.60;99.90;;;;;;5012637;28;20255;-70
2023/12/05 09:54:46;;;;;;;19.63;12.90;;;3.60;99.90;;;;;;5012317;28;20280;-68
2023/12/05 09:57:13;;;;;;;24.17;12.70;;;3.60;99.90;;;;;;5020259;28;20229;-66
2023/12/05 09:59:40;;;;;;;26.87;14.73;;;3.50;99.90;;;;;;5010964;28;20690;-65
2023/12/05 10:02:10;;;;;;;27.33;15.10;;;3.40;99.90;;;;;;5013789;28;20220;-72
2023/12/05 10:04:43;;;;;;;28.90;16.73;;;3.40;99.90;;;;;;5012829;28;20205;-70
2023/12/05 10:07:11;;;;;;;28.40;14.93;;;3.50;99.90;;;;;;5012497;28;20232;-70
2023/12/05 10:09:39;;;;;;;26.43;17.47;;;3.70;99.90;;;;;;5012649;28;20292;-69
2023/12/05 10:12:09;;;;;;;31.17;16.63;;;3.70;99.90;;;;;;5012358;28;20214;-69
2023/12/05 10:14:37;;;;;;;28.83;15.97;;;3.80;99.90;;;;;;5012592;28;20276;-69
2023/12/05 10:17:05;;;;;;;26.20;16.70;;;4.10;99.90;;;;;;5011970;28;20280;-71
2023/12/05 10:19:32;;;;;;;35.27;18.20;;;4.20;99.90;;;;;;5018378;28;20264;-71
2023/12/05 10:22:00;;;;;;;22.33;15.83;;;4.40;99.90;;;;;;5012322;28;20631;-69
2023/12/05 10:24:39;;;;;;;31.13;17.13;;;4.50;99.90;;;;;;5012837;28;20605;-70
2023/12/05 10:27:08;;;;;;;28.80;16.00;;;4.70;99.90;;;;;;5011990;28;20331;-68
2023/12/05 10:29:39;;;;;;;24.87;16.23;;;4.90;99.90;;;;;;5012290;28;20205;-68
2023/12/05 10:32:07;;;;;;;30.43;18.47;;;5.10;99.90;;;;;;5010570;28;20238;-67
2023/12/05 10:34:47;;;;;;;29.73;16.30;;;5.20;99.90;;;;;;5012257;28;20637;-68
2023/12/05 10:37:14;;;;;;;32.63;17.83;;;5.40;99.90;;;;;;5018521;28;20315;-68
2023/12/05 10:39:41;;;;;;;23.13;15.43;;;5.50;99.90;;;;;;5012302;28;20256;-69
2023/12/05 10:42:09;;;;;;;24.03;15.07;;;5.50;99.90;;;;;;5012102;28;20249;-66
2023/12/05 10:44:40;;;;;;;22.90;14.33;;;5.50;99.90;;;;;;5011380;28;20201;-67
2023/12/05 10:47:09;;;;;;;21.93;12.80;;;5.40;99.90;;;;;;5011384;28;20281;-66
2023/12/05 10:49:36;;;;;;;15.87;12.77;;;5.30;99.90;;;;;;5005810;28;20255;-73
2023/12/05 10:52:04;;;;;;;18.53;12.07;;;5.40;99.90;;;;;;5012118;28;20282;-73
2023/12/05 10:54:31;;;;;;;18.30;12.73;;;5.40;99.90;;;;;;5011921;28;20860;-69
2023/12/05 10:56:58;;;;;;;18.03;12.77;;;5.40;99.90;;;;;;5011275;28;20220;-67
2023/12/05 10:59:29;;;;;;;16.87;11.60;;;5.50;99.90;;;;;;5011113;28;20205;-70
2023/12/05 11:01:57;;;;;;;19.10;12.23;;;5.40;99.90;;;;;;5022350;28;20284;-66
2023/12/05 11:04:25;;;;;;;21.67;11.40;;;5.40;99.90;;;;;;5011021;28;20220;-67
2023/12/05 11:06:53;;;;;;;15.63;10.53;;;5.30;99.90;;;;;;5011332;28;20224;-65
2023/12/05 11:09:20;;;;;;;17.77;10.47;;;5.20;99.90;;;;;;5011613;28;20558;-65
2023/12/05 11:11:49;;;;;;;21.10;10.37;;;5.30;99.90;;;;;;5011809;28;20201;-65
2023/12/05 11:14:17;;;;;;;18.47;11.37;;;5.20;99.90;;;;;;5000136;28;20224;-64
2023/12/05 11:16:50;;;;;;;23.80;11.93;;;5.30;99.90;;;;;;5007030;28;20206;-64
2023/12/05 11:19:29;;;;;;;20.13;11.57;;;5.20;99.90;;;;;;5017017;28;20576;-68
2023/12/05 11:22:08;;;;;;;17.63;9.77;;;5.30;99.90;;;;;;4996787;28;20207;-68
2023/12/05 11:24:51;;;;;;;18.27;11.80;;;5.50;99.90;;;;;;5011355;28;20197;-69
2023/12/05 11:27:44;;;;;;;17.97;12.43;;;5.50;99.90;;;;;;5011306;28;20304;-62
2023/12/05 11:30:50;;;;;;;22.60;14.30;;;5.50;99.90;;;;;;5011481;28;20645;-62
2023/12/05 11:33:35;;;;;;;21.97;12.47;;;5.60;99.90;;;;;;5011335;28;20263;-62
2023/12/05 11:36:13;;;;;;;17.33;10.87;;;5.60;99.90;;;;;;5012467;28;20210;-62
2023/12/05 11:38:41;;;;;;;16.73;10.63;;;5.70;99.90;;;;;;5010003;28;20302;-62
2023/12/05 11:41:12;;;;;;;19.47;13.27;;;5.80;99.90;;;;;;5006044;28;20252;-62
2023/12/05 11:43:40;;;;;;;17.17;11.87;;;5.90;99.90;;;;;;5009518;28;20299;-63
2023/12/05 11:46:08;;;;;;;20.00;12.07;;;6.00;99.90;;;;;;5010885;28;20259;-62
2023/12/05 11:48:36;;;;;;;19.13;12.53;;;6.00;99.90;;;;;;5009888;28;20311;-63
2023/12/05 11:51:03;;;;;;;19.13;12.10;;;5.80;99.90;;;;;;5010578;28;20205;-62
2023/12/05 11:53:31;;;;;;;20.10;12.80;;;5.80;99.90;;;;;;5010281;28;20216;-66
2023/12/05 11:55:59;;;;;;;18.30;13.23;;;5.70;99.90;;;;;;5013389;28;20200;-71
2023/12/05 11:58:27;;;;;;;23.10;13.80;;;5.60;99.90;;;;;;5011104;28;20254;-70
2023/12/05 12:01:02;;;;;;;14.40;9.00;;;5.60;99.90;;;;;;5011996;28;20209;-70
2023/12/05 12:03:29;;;;;;;16.17;7.87;;;5.70;99.90;;;;;;5010182;28;20283;-70
2023/12/05 12:06:03;;;;;;;16.17;7.23;;;5.90;99.90;;;;;;5011174;28;20636;-72
2023/12/05 12:08:31;;;;;;;13.20;7.10;;;5.90;99.90;;;;;;5011346;28;20220;-72
2023/12/05 12:10:58;;;;;;;14.07;7.37;;;6.00;99.90;;;;;;5010910;28;20204;-70
2023/12/05 12:13:26;;;;;;;12.77;6.47;;;6.10;99.90;;;;;;5016735;28;20229;-72
2023/12/05 12:15:54;;;;;;;7.27;5.27;;;6.30;99.90;;;;;;5005504;28;20670;-70
2023/12/05 12:18:25;;;;;;;6.13;4.10;;;6.20;99.90;;;;;;5010278;28;20230;-67
2023/12/05 12:20:53;;;;;;;7.73;4.40;;;6.20;99.90;;;;;;5008966;28;20213;-65
2023/12/05 12:23:20;;;;;;;5.90;4.33;;;6.10;99.90;;;;;;5011262;28;20196;-69
2023/12/05 12:25:53;;;;;;;6.67;4.80;;;6.00;99.90;;;;;;5010344;28;20206;-71
2023/12/05 12:28:28;;;;;;;7.63;6.00;;;6.10;99.90;;;;;;5007128;28;20220;-69
2023/12/05 12:30:56;;;;;;;7.00;5.13;;;5.80;99.90;;;;;;5007509;28;20234;-66
2023/12/05 12:33:28;;;;;;;14.07;6.07;;;5.70;99.90;;;;;;5004071;28;20221;-70
2023/12/05 12:35:55;;;;;;;14.83;7.87;;;5.70;99.90;;;;;;5010717;28;20218;-71
2023/12/05 12:38:25;;;;;;;12.30;7.83;;;5.70;99.90;;;;;;5014018;28;20229;-72
2023/12/05 12:40:53;;;;;;;11.00;8.33;;;5.60;99.90;;;;;;5016928;28;20212;-66
2023/12/05 12:43:20;;;;;;;12.47;7.30;;;5.50;99.90;;;;;;5006513;28;20226;-67